Terminal Aerodrome Forecast
Issued by NWS

Home | Current Version | Previous Version | Text Only | Print | Product List | Glossary On
Versions: 1 2 3 4 5 6 7 8 9 10 11 12
000
FTPA31 PHFO 211120
TAFHMK
TAF
PHMK 211120Z 2112/2212 01006KT P6SM VCSH FEW030 BKN060
     FM212000 36012G18KT P6SM SCT030 SCT060
     FM220500 02006KT P6SM FEW030 SCT060
     FM221100 02006KT 6SM -SHRA SCT025 BKN050=

USA.gov is the U.S. government's official web portal to all federal, state and local government web resources and services.